sensor_id;sensor_type;location;lat;lon;timestamp;temperature;humidity
17988;DHT22;9119;50.932;5.342;2022-11-06T00:01:51;10.30;99.90
17988;DHT22;9119;50.932;5.342;2022-11-06T00:04:16;10.20;99.90
17988;DHT22;9119;50.932;5.342;2022-11-06T00:06:42;10.10;99.90
17988;DHT22;9119;50.932;5.342;2022-11-06T00:09:16;9.90;99.90
17988;DHT22;9119;50.932;5.342;2022-11-06T00:11:43;9.90;99.90
17988;DHT22;9119;50.932;5.342;2022-11-06T00:14:09;10.00;99.90
17988;DHT22;9119;50.932;5.342;2022-11-06T00:16:37;10.00;99.90
17988;DHT22;9119;50.932;5.342;2022-11-06T00:19:03;10.00;99.90
17988;DHT22;9119;50.932;5.342;2022-11-06T00:21:30;10.40;99.90
17988;DHT22;9119;50.932;5.342;2022-11-06T00:23:57;10.10;99.90
17988;DHT22;9119;50.932;5.342;2022-11-06T00:26:28;10.20;99.90
17988;DHT22;9119;50.932;5.342;2022-11-06T00:28:54;10.10;99.90
17988;DHT22;9119;50.932;5.342;2022-11-06T00:31:23;10.00;99.90
17988;DHT22;9119;50.932;5.342;2022-11-06T00:33:49;10.10;99.90
17988;DHT22;9119;50.932;5.342;2022-11-06T00:36:17;10.20;99.90
17988;DHT22;9119;50.932;5.342;2022-11-06T00:38:44;10.30;99.90
17988;DHT22;9119;50.932;5.342;2022-11-06T00:41:12;10.40;99.90
17988;DHT22;9119;50.932;5.342;2022-11-06T00:43:38;10.40;99.90
17988;DHT22;9119;50.932;5.342;2022-11-06T00:46:06;10.30;99.90
17988;DHT22;9119;50.932;5.342;2022-11-06T00:48:33;10.30;99.90
17988;DHT22;9119;50.932;5.342;2022-11-06T00:53:35;10.10;99.90
17988;DHT22;9119;50.932;5.342;2022-11-06T00:56:15;10.30;99.90
17988;DHT22;9119;50.932;5.342;2022-11-06T00:58:42;10.10;99.90
17988;DHT22;9119;50.932;5.342;2022-11-06T01:01:17;10.10;99.90
17988;DHT22;9119;50.932;5.342;2022-11-06T01:03:45;10.20;99.90
17988;DHT22;9119;50.932;5.342;2022-11-06T01:06:17;10.30;99.90
17988;DHT22;9119;50.932;5.342;2022-11-06T01:08:43;10.30;99.90
17988;DHT22;9119;50.932;5.342;2022-11-06T01:11:31;10.40;99.90
17988;DHT22;9119;50.932;5.342;2022-11-06T01:13:59;10.50;99.90
17988;DHT22;9119;50.932;5.342;2022-11-06T01:16:26;10.50;99.90
17988;DHT22;9119;50.932;5.342;2022-11-06T01:18:54;10.70;99.90
17988;DHT22;9119;50.932;5.342;2022-11-06T01:21:25;10.70;99.90
17988;DHT22;9119;50.932;5.342;2022-11-06T01:23:53;10.20;99.90
17988;DHT22;9119;50.932;5.342;2022-11-06T01:26:20;10.20;99.90
17988;DHT22;9119;50.932;5.342;2022-11-06T01:28:45;10.40;99.90
17988;DHT22;9119;50.932;5.342;2022-11-06T01:31:14;10.60;99.90
17988;DHT22;9119;50.932;5.342;2022-11-06T01:33:40;10.50;99.90
17988;DHT22;9119;50.932;5.342;2022-11-06T01:36:11;10.50;99.90
17988;DHT22;9119;50.932;5.342;2022-11-06T01:38:41;10.50;99.90
17988;DHT22;9119;50.932;5.342;2022-11-06T01:41:07;10.40;99.90
17988;DHT22;9119;50.932;5.342;2022-11-06T01:43:53;10.40;99.90
17988;DHT22;9119;50.932;5.342;2022-11-06T01:46:21;10.20;99.90
17988;DHT22;9119;50.932;5.342;2022-11-06T01:48:54;10.20;99.90
17988;DHT22;9119;50.932;5.342;2022-11-06T01:51:24;10.30;99.90
17988;DHT22;9119;50.932;5.342;2022-11-06T01:53:51;10.30;99.90
17988;DHT22;9119;50.932;5.342;2022-11-06T01:56:19;10.50;99.90
17988;DHT22;9119;50.932;5.342;2022-11-06T01:58:46;10.60;99.90
17988;DHT22;9119;50.932;5.342;2022-11-06T02:01:13;10.70;99.90
17988;DHT22;9119;50.932;5.342;2022-11-06T02:03:44;10.60;99.90
17988;DHT22;9119;50.932;5.342;2022-11-06T02:06:10;10.50;99.90
17988;DHT22;9119;50.932;5.342;2022-11-06T02:08:37;10.50;99.90
17988;DHT22;9119;50.932;5.342;2022-11-06T02:11:02;10.80;99.90
17988;DHT22;9119;50.932;5.342;2022-11-06T02:16:26;10.50;99.90
17988;DHT22;9119;50.932;5.342;2022-11-06T02:19:12;10.60;99.90
17988;DHT22;9119;50.932;5.342;2022-11-06T02:21:58;10.60;99.90
17988;DHT22;9119;50.932;5.342;2022-11-06T02:35:46;10.60;99.90
17988;DHT22;9119;50.932;5.342;2022-11-06T02:38:48;10.70;99.90
17988;DHT22;9119;50.932;5.342;2022-11-06T02:41:17;10.70;99.90
17988;DHT22;9119;50.932;5.342;2022-11-06T02:43:48;10.60;99.90
17988;DHT22;9119;50.932;5.342;2022-11-06T02:46:31;10.60;99.90
17988;DHT22;9119;50.932;5.342;2022-11-06T02:49:12;10.50;99.90
17988;DHT22;9119;50.932;5.342;2022-11-06T02:51:44;10.50;99.90
17988;DHT22;9119;50.932;5.342;2022-11-06T02:54:11;10.30;99.90
17988;DHT22;9119;50.932;5.342;2022-11-06T02:56:42;10.40;99.90
17988;DHT22;9119;50.932;5.342;2022-11-06T02:59:17;10.40;99.90
17988;DHT22;9119;50.932;5.342;2022-11-06T03:01:57;10.30;99.90
17988;DHT22;9119;50.932;5.342;2022-11-06T03:05:20;10.40;99.90
17988;DHT22;9119;50.932;5.342;2022-11-06T03:07:53;10.30;99.90
17988;DHT22;9119;50.932;5.342;2022-11-06T03:10:20;10.40;99.90
17988;DHT22;9119;50.932;5.342;2022-11-06T03:12:56;10.30;99.90
17988;DHT22;9119;50.932;5.342;2022-11-06T03:18:13;10.40;99.90
17988;DHT22;9119;50.932;5.342;2022-11-06T03:24:00;10.50;99.90
17988;DHT22;9119;50.932;5.342;2022-11-06T03:26:35;10.60;99.90
17988;DHT22;9119;50.932;5.342;2022-11-06T03:31:56;10.50;99.90
17988;DHT22;9119;50.932;5.342;2022-11-06T03:34:37;10.40;99.90
17988;DHT22;9119;50.932;5.342;2022-11-06T03:37:13;10.50;99.90
17988;DHT22;9119;50.932;5.342;2022-11-06T03:39:45;10.40;99.90
17988;DHT22;9119;50.932;5.342;2022-11-06T03:42:16;10.40;99.90
17988;DHT22;9119;50.932;5.342;2022-11-06T03:44:48;10.40;99.90
17988;DHT22;9119;50.932;5.342;2022-11-06T03:47:43;10.40;99.90
17988;DHT22;9119;50.932;5.342;2022-11-06T03:50:14;10.40;99.90
17988;DHT22;9119;50.932;5.342;2022-11-06T03:52:50;10.70;99.90
17988;DHT22;9119;50.932;5.342;2022-11-06T03:55:22;10.50;99.90
17988;DHT22;9119;50.932;5.342;2022-11-06T03:58:16;10.60;99.90
17988;DHT22;9119;50.932;5.342;2022-11-06T04:00:44;10.60;99.90
17988;DHT22;9119;50.932;5.342;2022-11-06T04:03:21;10.60;99.90
17988;DHT22;9119;50.932;5.342;2022-11-06T04:06:21;10.50;99.90
17988;DHT22;9119;50.932;5.342;2022-11-06T04:08:49;10.50;99.90
17988;DHT22;9119;50.932;5.342;2022-11-06T04:11:36;10.50;99.90
17988;DHT22;9119;50.932;5.342;2022-11-06T04:14:25;10.50;99.90
17988;DHT22;9119;50.932;5.342;2022-11-06T04:16:54;10.50;99.90
17988;DHT22;9119;50.932;5.342;2022-11-06T04:19:22;10.40;99.90
17988;DHT22;9119;50.932;5.342;2022-11-06T04:30:45;10.30;99.90
17988;DHT22;9119;50.932;5.342;2022-11-06T04:33:24;10.30;99.90
17988;DHT22;9119;50.932;5.342;2022-11-06T04:36:01;10.20;99.90
17988;DHT22;9119;50.932;5.342;2022-11-06T04:43:53;10.20;99.90
17988;DHT22;9119;50.932;5.342;2022-11-06T04:46:31;10.10;99.90
17988;DHT22;9119;50.932;5.342;2022-11-06T04:48:58;10.10;99.90
17988;DHT22;9119;50.932;5.342;2022-11-06T04:51:30;10.10;99.90
17988;DHT22;9119;50.932;5.342;2022-11-06T04:53:58;10.10;99.90
17988;DHT22;9119;50.932;5.342;2022-11-06T04:56:33;10.00;99.90
17988;DHT22;9119;50.932;5.342;2022-11-06T04:58:59;10.10;99.90
17988;DHT22;9119;50.932;5.342;2022-11-06T05:01:25;10.00;99.90
17988;DHT22;9119;50.932;5.342;2022-11-06T05:03:51;10.10;99.90
17988;DHT22;9119;50.932;5.342;2022-11-06T05:06:17;9.90;99.90
17988;DHT22;9119;50.932;5.342;2022-11-06T05:08:42;9.90;99.90
17988;DHT22;9119;50.932;5.342;2022-11-06T05:11:08;9.90;99.90
17988;DHT22;9119;50.932;5.342;2022-11-06T05:13:34;9.90;99.90
17988;DHT22;9119;50.932;5.342;2022-11-06T05:15:59;10.00;99.90
17988;DHT22;9119;50.932;5.342;2022-11-06T05:18:26;9.90;99.90
17988;DHT22;9119;50.932;5.342;2022-11-06T05:20:52;9.90;99.90
17988;DHT22;9119;50.932;5.342;2022-11-06T05:23:38;9.90;99.90
17988;DHT22;9119;50.932;5.342;2022-11-06T05:26:04;10.00;99.90
17988;DHT22;9119;50.932;5.342;2022-11-06T05:28:30;9.90;99.90
17988;DHT22;9119;50.932;5.342;2022-11-06T05:30:56;10.10;99.90
17988;DHT22;9119;50.932;5.342;2022-11-06T05:33:22;10.10;99.90
17988;DHT22;9119;50.932;5.342;2022-11-06T05:35:49;10.30;99.90
17988;DHT22;9119;50.932;5.342;2022-11-06T05:38:14;10.10;99.90
17988;DHT22;9119;50.932;5.342;2022-11-06T05:40:40;10.30;99.90
17988;DHT22;9119;50.932;5.342;2022-11-06T05:43:06;10.10;99.90
17988;DHT22;9119;50.932;5.342;2022-11-06T05:45:31;10.30;99.90
17988;DHT22;9119;50.932;5.342;2022-11-06T05:47:57;10.30;99.90
17988;DHT22;9119;50.932;5.342;2022-11-06T05:50:23;10.30;99.90
17988;DHT22;9119;50.932;5.342;2022-11-06T05:52:49;10.30;99.90
17988;DHT22;9119;50.932;5.342;2022-11-06T05:55:15;10.20;99.90
17988;DHT22;9119;50.932;5.342;2022-11-06T05:57:41;10.20;99.90
17988;DHT22;9119;50.932;5.342;2022-11-06T06:00:08;10.20;99.90
17988;DHT22;9119;50.932;5.342;2022-11-06T06:02:35;10.20;99.90
17988;DHT22;9119;50.932;5.342;2022-11-06T06:05:01;10.30;99.90
17988;DHT22;9119;50.932;5.342;2022-11-06T06:07:28;10.40;99.90
17988;DHT22;9119;50.932;5.342;2022-11-06T06:09:53;10.20;99.90
17988;DHT22;9119;50.932;5.342;2022-11-06T06:12:19;10.30;99.90
17988;DHT22;9119;50.932;5.342;2022-11-06T06:14:45;10.30;99.90
17988;DHT22;9119;50.932;5.342;2022-11-06T06:17:10;10.50;99.90
17988;DHT22;9119;50.932;5.342;2022-11-06T06:19:36;10.40;99.90
17988;DHT22;9119;50.932;5.342;2022-11-06T06:22:02;10.40;99.90
17988;DHT22;9119;50.932;5.342;2022-11-06T06:24:27;10.40;99.90
17988;DHT22;9119;50.932;5.342;2022-11-06T06:26:53;10.20;99.90
17988;DHT22;9119;50.932;5.342;2022-11-06T06:29:18;10.10;99.90
17988;DHT22;9119;50.932;5.342;2022-11-06T06:31:44;10.20;99.90
17988;DHT22;9119;50.932;5.342;2022-11-06T06:34:10;10.20;99.90
17988;DHT22;9119;50.932;5.342;2022-11-06T06:36:35;10.10;99.90
17988;DHT22;9119;50.932;5.342;2022-11-06T06:39:01;10.10;99.90
17988;DHT22;9119;50.932;5.342;2022-11-06T06:41:26;10.10;99.90
17988;DHT22;9119;50.932;5.342;2022-11-06T06:43:52;10.10;99.90
17988;DHT22;9119;50.932;5.342;2022-11-06T06:46:18;10.10;99.90
17988;DHT22;9119;50.932;5.342;2022-11-06T06:48:43;10.10;99.90
17988;DHT22;9119;50.932;5.342;2022-11-06T06:51:09;10.30;99.90
17988;DHT22;9119;50.932;5.342;2022-11-06T06:53:35;10.10;99.90
17988;DHT22;9119;50.932;5.342;2022-11-06T06:56:01;10.20;99.90
17988;DHT22;9119;50.932;5.342;2022-11-06T06:58:28;10.40;99.90
17988;DHT22;9119;50.932;5.342;2022-11-06T07:00:53;10.20;99.90
17988;DHT22;9119;50.932;5.342;2022-11-06T07:03:20;10.00;99.90
17988;DHT22;9119;50.932;5.342;2022-11-06T07:05:46;9.90;99.90
17988;DHT22;9119;50.932;5.342;2022-11-06T07:08:11;10.20;99.90
17988;DHT22;9119;50.932;5.342;2022-11-06T07:10:37;10.10;99.90
17988;DHT22;9119;50.932;5.342;2022-11-06T07:13:04;10.10;99.90
17988;DHT22;9119;50.932;5.342;2022-11-06T07:15:30;10.20;99.90
17988;DHT22;9119;50.932;5.342;2022-11-06T07:18:06;10.20;99.90
17988;DHT22;9119;50.932;5.342;2022-11-06T07:20:33;10.10;99.90
17988;DHT22;9119;50.932;5.342;2022-11-06T07:23:03;10.20;99.90
17988;DHT22;9119;50.932;5.342;2022-11-06T07:25:29;10.20;99.90
17988;DHT22;9119;50.932;5.342;2022-11-06T07:27:59;10.10;99.90
17988;DHT22;9119;50.932;5.342;2022-11-06T07:30:25;10.10;99.90
17988;DHT22;9119;50.932;5.342;2022-11-06T07:32:50;10.20;99.90
17988;DHT22;9119;50.932;5.342;2022-11-06T07:35:16;10.20;99.90
17988;DHT22;9119;50.932;5.342;2022-11-06T07:37:42;10.20;99.90
17988;DHT22;9119;50.932;5.342;2022-11-06T07:40:08;10.30;99.90
17988;DHT22;9119;50.932;5.342;2022-11-06T07:42:34;10.20;99.90
17988;DHT22;9119;50.932;5.342;2022-11-06T07:45:00;10.30;99.90
17988;DHT22;9119;50.932;5.342;2022-11-06T07:47:25;10.50;99.90
17988;DHT22;9119;50.932;5.342;2022-11-06T07:49:52;10.50;99.90
17988;DHT22;9119;50.932;5.342;2022-11-06T07:52:17;10.60;99.90
17988;DHT22;9119;50.932;5.342;2022-11-06T07:54:43;10.40;99.90
17988;DHT22;9119;50.932;5.342;2022-11-06T07:57:09;10.60;99.90
17988;DHT22;9119;50.932;5.342;2022-11-06T07:59:34;10.40;99.90
17988;DHT22;9119;50.932;5.342;2022-11-06T08:02:00;10.40;99.90
17988;DHT22;9119;50.932;5.342;2022-11-06T08:04:25;10.40;99.90
17988;DHT22;9119;50.932;5.342;2022-11-06T08:06:51;10.50;99.90
17988;DHT22;9119;50.932;5.342;2022-11-06T08:09:16;10.90;99.90
17988;DHT22;9119;50.932;5.342;2022-11-06T08:11:42;11.10;99.90
17988;DHT22;9119;50.932;5.342;2022-11-06T08:14:08;11.30;99.90
17988;DHT22;9119;50.932;5.342;2022-11-06T08:16:35;11.50;99.90
17988;DHT22;9119;50.932;5.342;2022-11-06T08:19:00;11.70;99.90
17988;DHT22;9119;50.932;5.342;2022-11-06T08:21:26;11.80;99.90
17988;DHT22;9119;50.932;5.342;2022-11-06T08:23:52;11.80;99.90
17988;DHT22;9119;50.932;5.342;2022-11-06T08:26:17;12.00;99.90
17988;DHT22;9119;50.932;5.342;2022-11-06T08:28:43;12.00;99.90
17988;DHT22;9119;50.932;5.342;2022-11-06T08:31:09;12.00;99.90
17988;DHT22;9119;50.932;5.342;2022-11-06T08:33:36;11.90;99.90
17988;DHT22;9119;50.932;5.342;2022-11-06T08:36:03;11.60;99.90
17988;DHT22;9119;50.932;5.342;2022-11-06T08:38:29;11.40;99.90
17988;DHT22;9119;50.932;5.342;2022-11-06T08:40:55;11.20;99.90
17988;DHT22;9119;50.932;5.342;2022-11-06T08:43:21;11.10;99.90
17988;DHT22;9119;50.932;5.342;2022-11-06T08:45:51;11.10;99.90
17988;DHT22;9119;50.932;5.342;2022-11-06T08:48:17;11.30;99.90
17988;DHT22;9119;50.932;5.342;2022-11-06T08:50:42;11.30;99.90
17988;DHT22;9119;50.932;5.342;2022-11-06T08:53:08;11.30;99.90
17988;DHT22;9119;50.932;5.342;2022-11-06T08:55:35;11.30;99.90
17988;DHT22;9119;50.932;5.342;2022-11-06T08:58:02;11.40;99.90
17988;DHT22;9119;50.932;5.342;2022-11-06T09:00:28;11.30;99.90
17988;DHT22;9119;50.932;5.342;2022-11-06T09:03:08;11.40;99.90
17988;DHT22;9119;50.932;5.342;2022-11-06T09:05:35;11.40;99.90
17988;DHT22;9119;50.932;5.342;2022-11-06T09:08:00;11.30;99.90
17988;DHT22;9119;50.932;5.342;2022-11-06T09:10:27;11.30;99.90
17988;DHT22;9119;50.932;5.342;2022-11-06T09:12:53;11.40;99.90
17988;DHT22;9119;50.932;5.342;2022-11-06T09:15:19;11.40;99.90
17988;DHT22;9119;50.932;5.342;2022-11-06T09:17:46;11.20;99.90
17988;DHT22;9119;50.932;5.342;2022-11-06T09:20:13;11.30;99.90
17988;DHT22;9119;50.932;5.342;2022-11-06T09:22:39;11.30;99.90
17988;DHT22;9119;50.932;5.342;2022-11-06T09:25:06;11.40;99.90
17988;DHT22;9119;50.932;5.342;2022-11-06T09:27:31;11.40;99.90
17988;DHT22;9119;50.932;5.342;2022-11-06T09:29:58;11.40;99.90
17988;DHT22;9119;50.932;5.342;2022-11-06T09:32:24;11.50;99.90
17988;DHT22;9119;50.932;5.342;2022-11-06T09:34:49;11.60;99.90
17988;DHT22;9119;50.932;5.342;2022-11-06T09:37:15;11.70;99.90
17988;DHT22;9119;50.932;5.342;2022-11-06T09:39:41;11.70;99.90
17988;DHT22;9119;50.932;5.342;2022-11-06T09:42:20;11.70;99.90
17988;DHT22;9119;50.932;5.342;2022-11-06T09:45:06;11.80;99.90
17988;DHT22;9119;50.932;5.342;2022-11-06T09:47:38;11.80;99.90
17988;DHT22;9119;50.932;5.342;2022-11-06T09:50:09;11.80;99.90
17988;DHT22;9119;50.932;5.342;2022-11-06T09:52:43;11.80;99.90
17988;DHT22;9119;50.932;5.342;2022-11-06T09:55:43;11.90;99.90
17988;DHT22;9119;50.932;5.342;2022-11-06T09:58:19;11.90;99.90
17988;DHT22;9119;50.932;5.342;2022-11-06T10:00:50;11.80;99.90
17988;DHT22;9119;50.932;5.342;2022-11-06T10:03:39;12.00;99.90
17988;DHT22;9119;50.932;5.342;2022-11-06T10:06:07;12.10;99.90
17988;DHT22;9119;50.932;5.342;2022-11-06T10:08:33;12.10;99.90
17988;DHT22;9119;50.932;5.342;2022-11-06T10:16:54;11.80;99.90
17988;DHT22;9119;50.932;5.342;2022-11-06T10:19:47;11.90;99.90
17988;DHT22;9119;50.932;5.342;2022-11-06T10:22:16;11.90;99.90
17988;DHT22;9119;50.932;5.342;2022-11-06T10:25:02;12.10;99.90
17988;DHT22;9119;50.932;5.342;2022-11-06T10:27:39;12.10;99.90
17988;DHT22;9119;50.932;5.342;2022-11-06T10:30:13;12.00;99.90
17988;DHT22;9119;50.932;5.342;2022-11-06T10:33:03;12.10;99.90
17988;DHT22;9119;50.932;5.342;2022-11-06T10:35:49;12.10;99.90
17988;DHT22;9119;50.932;5.342;2022-11-06T10:38:36;12.00;99.90
17988;DHT22;9119;50.932;5.342;2022-11-06T10:41:03;12.00;99.90
17988;DHT22;9119;50.932;5.342;2022-11-06T10:44:00;12.00;99.90
17988;DHT22;9119;50.932;5.342;2022-11-06T10:46:37;12.00;99.90
17988;DHT22;9119;50.932;5.342;2022-11-06T10:57:49;12.20;99.90
17988;DHT22;9119;50.932;5.342;2022-11-06T11:00:17;12.20;99.90
17988;DHT22;9119;50.932;5.342;2022-11-06T11:02:45;12.30;99.90
17988;DHT22;9119;50.932;5.342;2022-11-06T11:05:14;12.40;99.90
17988;DHT22;9119;50.932;5.342;2022-11-06T11:07:41;12.50;99.90
17988;DHT22;9119;50.932;5.342;2022-11-06T11:10:31;12.50;99.90
17988;DHT22;9119;50.932;5.342;2022-11-06T11:12:59;12.50;99.90
17988;DHT22;9119;50.932;5.342;2022-11-06T11:15:30;12.50;99.90
17988;DHT22;9119;50.932;5.342;2022-11-06T11:20:51;12.70;99.90
17988;DHT22;9119;50.932;5.342;2022-11-06T11:23:27;12.70;99.90
17988;DHT22;9119;50.932;5.342;2022-11-06T11:25:54;12.70;99.90
17988;DHT22;9119;50.932;5.342;2022-11-06T11:31:12;12.80;99.90
17988;DHT22;9119;50.932;5.342;2022-11-06T11:33:40;12.60;99.90
17988;DHT22;9119;50.932;5.342;2022-11-06T11:36:07;12.50;99.90
17988;DHT22;9119;50.932;5.342;2022-11-06T11:38:35;12.50;99.90
17988;DHT22;9119;50.932;5.342;2022-11-06T11:41:25;12.30;99.90
17988;DHT22;9119;50.932;5.342;2022-11-06T11:44:04;12.50;99.90
17988;DHT22;9119;50.932;5.342;2022-11-06T11:46:31;12.30;99.90
17988;DHT22;9119;50.932;5.342;2022-11-06T11:48:58;12.30;99.90
17988;DHT22;9119;50.932;5.342;2022-11-06T11:51:40;12.30;99.90
17988;DHT22;9119;50.932;5.342;2022-11-06T11:59:21;12.60;99.90
17988;DHT22;9119;50.932;5.342;2022-11-06T12:01:47;12.70;99.90
17988;DHT22;9119;50.932;5.342;2022-11-06T12:09:46;12.70;99.90
17988;DHT22;9119;50.932;5.342;2022-11-06T12:12:24;12.70;99.90
17988;DHT22;9119;50.932;5.342;2022-11-06T12:17:36;12.50;99.90
17988;DHT22;9119;50.932;5.342;2022-11-06T12:20:14;12.40;99.90
17988;DHT22;9119;50.932;5.342;2022-11-06T12:22:44;12.40;99.90
17988;DHT22;9119;50.932;5.342;2022-11-06T12:25:34;12.50;99.90
17988;DHT22;9119;50.932;5.342;2022-11-06T12:28:04;12.40;99.90
17988;DHT22;9119;50.932;5.342;2022-11-06T12:30:35;12.50;99.90
17988;DHT22;9119;50.932;5.342;2022-11-06T12:33:20;12.80;99.90
17988;DHT22;9119;50.932;5.342;2022-11-06T12:35:53;12.40;99.90
17988;DHT22;9119;50.932;5.342;2022-11-06T12:38:30;12.40;99.90
17988;DHT22;9119;50.932;5.342;2022-11-06T12:41:22;12.50;99.90
17988;DHT22;9119;50.932;5.342;2022-11-06T12:43:50;12.60;99.90
17988;DHT22;9119;50.932;5.342;2022-11-06T12:52:15;12.40;99.90
17988;DHT22;9119;50.932;5.342;2022-11-06T13:00:18;12.30;99.90
17988;DHT22;9119;50.932;5.342;2022-11-06T13:16:37;11.70;99.90
17988;DHT22;9119;50.932;5.342;2022-11-06T13:24:27;11.40;99.90
17988;DHT22;9119;50.932;5.342;2022-11-06T13:27:01;11.40;99.90
17988;DHT22;9119;50.932;5.342;2022-11-06T13:29:34;11.40;99.90
17988;DHT22;9119;50.932;5.342;2022-11-06T13:32:05;11.30;99.90
17988;DHT22;9119;50.932;5.342;2022-11-06T13:34:36;11.30;99.90
17988;DHT22;9119;50.932;5.342;2022-11-06T13:37:11;11.30;99.90
17988;DHT22;9119;50.932;5.342;2022-11-06T13:39:43;11.20;99.90
17988;DHT22;9119;50.932;5.342;2022-11-06T13:42:28;11.30;99.90
17988;DHT22;9119;50.932;5.342;2022-11-06T13:44:55;11.10;99.90
17988;DHT22;9119;50.932;5.342;2022-11-06T13:52:48;10.90;99.90
17988;DHT22;9119;50.932;5.342;2022-11-06T13:58:41;10.90;99.90
17988;DHT22;9119;50.932;5.342;2022-11-06T14:07:33;10.80;99.90
17988;DHT22;9119;50.932;5.342;2022-11-06T14:09:59;10.70;99.90
17988;DHT22;9119;50.932;5.342;2022-11-06T14:12:26;10.70;99.90
17988;DHT22;9119;50.932;5.342;2022-11-06T14:15:15;10.50;99.90
17988;DHT22;9119;50.932;5.342;2022-11-06T14:17:58;10.40;99.90
17988;DHT22;9119;50.932;5.342;2022-11-06T14:20:34;10.30;99.90
17988;DHT22;9119;50.932;5.342;2022-11-06T14:26:08;10.30;99.90
17988;DHT22;9119;50.932;5.342;2022-11-06T14:28:39;10.20;99.90
17988;DHT22;9119;50.932;5.342;2022-11-06T14:31:07;10.10;99.90
17988;DHT22;9119;50.932;5.342;2022-11-06T14:38:48;10.00;99.90
17988;DHT22;9119;50.932;5.342;2022-11-06T14:43:59;10.00;99.90
17988;DHT22;9119;50.932;5.342;2022-11-06T14:46:26;10.00;99.90
17988;DHT22;9119;50.932;5.342;2022-11-06T14:48:54;10.00;99.90
17988;DHT22;9119;50.932;5.342;2022-11-06T14:51:28;9.90;99.90
17988;DHT22;9119;50.932;5.342;2022-11-06T14:53:59;10.10;99.90
17988;DHT22;9119;50.932;5.342;2022-11-06T14:56:32;9.90;99.90
17988;DHT22;9119;50.932;5.342;2022-11-06T14:59:14;10.10;99.90
17988;DHT22;9119;50.932;5.342;2022-11-06T15:02:02;9.90;99.90
17988;DHT22;9119;50.932;5.342;2022-11-06T15:04:33;9.90;99.90
17988;DHT22;9119;50.932;5.342;2022-11-06T15:07:08;9.80;99.90
17988;DHT22;9119;50.932;5.342;2022-11-06T15:12:05;9.70;99.90
17988;DHT22;9119;50.932;5.342;2022-11-06T15:17:11;9.60;99.90
17988;DHT22;9119;50.932;5.342;2022-11-06T15:19:50;9.60;99.90
17988;DHT22;9119;50.932;5.342;2022-11-06T15:22:39;9.60;99.90
17988;DHT22;9119;50.932;5.342;2022-11-06T15:30:23;9.60;99.90
17988;DHT22;9119;50.932;5.342;2022-11-06T15:32:52;9.60;99.90
17988;DHT22;9119;50.932;5.342;2022-11-06T15:35:25;9.60;99.90
17988;DHT22;9119;50.932;5.342;2022-11-06T15:38:01;9.60;99.90
17988;DHT22;9119;50.932;5.342;2022-11-06T15:40:34;9.70;99.90
17988;DHT22;9119;50.932;5.342;2022-11-06T15:45:31;9.60;99.90
17988;DHT22;9119;50.932;5.342;2022-11-06T15:47:59;9.60;99.90
17988;DHT22;9119;50.932;5.342;2022-11-06T15:50:29;9.70;99.90
17988;DHT22;9119;50.932;5.342;2022-11-06T15:56:22;9.50;99.90
17988;DHT22;9119;50.932;5.342;2022-11-06T15:58:37;9.40;99.90
17988;DHT22;9119;50.932;5.342;2022-11-06T16:01:04;9.40;99.90
17988;DHT22;9119;50.932;5.342;2022-11-06T16:03:46;9.40;99.90
17988;DHT22;9119;50.932;5.342;2022-11-06T16:06:13;9.30;99.90
17988;DHT22;9119;50.932;5.342;2022-11-06T16:08:40;9.40;99.90
17988;DHT22;9119;50.932;5.342;2022-11-06T16:11:16;9.20;99.90
17988;DHT22;9119;50.932;5.342;2022-11-06T16:13:44;9.20;99.90
17988;DHT22;9119;50.932;5.342;2022-11-06T16:16:34;9.30;99.90
17988;DHT22;9119;50.932;5.342;2022-11-06T16:19:06;9.20;99.90
17988;DHT22;9119;50.932;5.342;2022-11-06T16:21:48;9.20;99.90
17988;DHT22;9119;50.932;5.342;2022-11-06T16:24:15;9.20;99.90
17988;DHT22;9119;50.932;5.342;2022-11-06T16:26:50;9.20;99.90
17988;DHT22;9119;50.932;5.342;2022-11-06T16:29:23;9.20;99.90
17988;DHT22;9119;50.932;5.342;2022-11-06T16:32:22;9.20;99.90
17988;DHT22;9119;50.932;5.342;2022-11-06T16:34:47;9.30;99.90
17988;DHT22;9119;50.932;5.342;2022-11-06T16:39:59;9.20;99.90
17988;DHT22;9119;50.932;5.342;2022-11-06T16:42:30;9.20;99.90
17988;DHT22;9119;50.932;5.342;2022-11-06T16:45:18;9.30;99.90
17988;DHT22;9119;50.932;5.342;2022-11-06T16:48:23;9.30;99.90
17988;DHT22;9119;50.932;5.342;2022-11-06T16:50:54;9.30;99.90
17988;DHT22;9119;50.932;5.342;2022-11-06T16:53:23;9.40;99.90
17988;DHT22;9119;50.932;5.342;2022-11-06T16:56:02;9.50;99.90
17988;DHT22;9119;50.932;5.342;2022-11-06T16:58:43;9.60;99.90
17988;DHT22;9119;50.932;5.342;2022-11-06T17:01:10;9.60;99.90
17988;DHT22;9119;50.932;5.342;2022-11-06T17:03:58;9.70;99.90
17988;DHT22;9119;50.932;5.342;2022-11-06T17:06:27;9.80;99.90
17988;DHT22;9119;50.932;5.342;2022-11-06T17:09:43;9.70;99.90
17988;DHT22;9119;50.932;5.342;2022-11-06T17:11:57;9.80;99.90
17988;DHT22;9119;50.932;5.342;2022-11-06T17:14:23;9.80;99.90
17988;DHT22;9119;50.932;5.342;2022-11-06T17:16:52;9.90;99.90
17988;DHT22;9119;50.932;5.342;2022-11-06T17:19:19;9.90;99.90
17988;DHT22;9119;50.932;5.342;2022-11-06T17:21:46;10.00;99.90
17988;DHT22;9119;50.932;5.342;2022-11-06T17:24:12;9.90;99.90
17988;DHT22;9119;50.932;5.342;2022-11-06T17:26:45;10.00;99.90
17988;DHT22;9119;50.932;5.342;2022-11-06T17:29:11;9.90;99.90
17988;DHT22;9119;50.932;5.342;2022-11-06T17:31:37;9.90;99.90
17988;DHT22;9119;50.932;5.342;2022-11-06T17:34:03;9.90;99.90
17988;DHT22;9119;50.932;5.342;2022-11-06T17:36:30;10.00;99.90
17988;DHT22;9119;50.932;5.342;2022-11-06T17:38:57;10.10;99.90
17988;DHT22;9119;50.932;5.342;2022-11-06T17:41:24;10.10;99.90
17988;DHT22;9119;50.932;5.342;2022-11-06T17:44:05;10.00;99.90
17988;DHT22;9119;50.932;5.342;2022-11-06T17:46:36;10.10;99.90
17988;DHT22;9119;50.932;5.342;2022-11-06T17:49:02;10.20;99.90
17988;DHT22;9119;50.932;5.342;2022-11-06T17:51:29;10.20;99.90
17988;DHT22;9119;50.932;5.342;2022-11-06T17:54:14;10.10;99.90
17988;DHT22;9119;50.932;5.342;2022-11-06T17:56:41;10.10;99.90
17988;DHT22;9119;50.932;5.342;2022-11-06T17:59:10;10.20;99.90
17988;DHT22;9119;50.932;5.342;2022-11-06T18:01:36;10.30;99.90
17988;DHT22;9119;50.932;5.342;2022-11-06T18:04:02;10.30;99.90
17988;DHT22;9119;50.932;5.342;2022-11-06T18:06:27;10.20;99.90
17988;DHT22;9119;50.932;5.342;2022-11-06T18:08:57;10.40;99.90
17988;DHT22;9119;50.932;5.342;2022-11-06T18:11:24;10.30;99.90
17988;DHT22;9119;50.932;5.342;2022-11-06T18:13:50;10.40;99.90
17988;DHT22;9119;50.932;5.342;2022-11-06T18:16:36;10.30;99.90
17988;DHT22;9119;50.932;5.342;2022-11-06T18:19:08;10.30;99.90
17988;DHT22;9119;50.932;5.342;2022-11-06T18:21:34;10.30;99.90
17988;DHT22;9119;50.932;5.342;2022-11-06T18:24:00;10.50;99.90
17988;DHT22;9119;50.932;5.342;2022-11-06T18:26:26;10.50;99.90
17988;DHT22;9119;50.932;5.342;2022-11-06T18:28:51;10.40;99.90
17988;DHT22;9119;50.932;5.342;2022-11-06T18:31:17;10.40;99.90
17988;DHT22;9119;50.932;5.342;2022-11-06T18:33:43;10.50;99.90
17988;DHT22;9119;50.932;5.342;2022-11-06T18:36:10;10.60;99.90
17988;DHT22;9119;50.932;5.342;2022-11-06T18:38:37;10.50;99.90
17988;DHT22;9119;50.932;5.342;2022-11-06T18:41:11;10.60;99.90
17988;DHT22;9119;50.932;5.342;2022-11-06T18:43:37;10.50;99.90